This is the latest recevied weather packets stored in our database for station/object KE6JJJ-1. If no packets are shown the sender has not sent any weather packets the latest 10 day(s).
| Time | Temp. | Humidity | Pressure | Rain* | Wind** | Luminosity | Snow |
|---|---|---|---|---|---|---|---|
| 1788140106 | 15.56° C | 83% | 1011.7 hPa | 0 mm | - | 148 W/m² | - |
| 1788134703 | 16.67° C | 78% | 1012 hPa | 0 mm | - | 448 W/m² | - |
| 1788131103 | 17.22° C | 76% | 1012.5 hPa | 0 mm | - | 621 W/m² | - |
| 1788129303 | 18.33° C | 75% | 1012.4 hPa | 0 mm | - | 693 W/m² | - |
| 1788127503 | 18.89° C | 74% | 1012.9 hPa | 0 mm | - | 754 W/m² | - |
| 1788125704 | 18.33° C | 74% | 1013.2 hPa | 0 mm | - | 801 W/m² | - |
| 1788123903 | 18.33° C | 75% | 1013.8 hPa | 0 mm | - | 837 W/m² | - |
| 1788122107 | 18.89° C | 73% | 1014 hPa | 0 mm | - | 851 W/m² | - |
| 1788120303 | 18.89° C | 74% | 1014.3 hPa | 0 mm | - | 858 W/m² | - |
| 1788118519 | 18.33° C | 75% | 1014.5 hPa | 0 mm | - | 944 W/m² | - |
| 1788116703 | 17.22° C | 77% | 1014.5 hPa | 0 mm | - | 582 W/m² | - |
| 1788114906 | 16.67° C | 80% | 1014.5 hPa | 0 mm | - | 471 W/m² | - |
| 1788113106 | 16.11° C | 83% | 1014.6 hPa | 0 mm | - | 315 W/m² | - |
| 1788107703 | 15° C | 85% | 1014.6 hPa | 0 mm | - | 113 W/m² | - |
| 1788105903 | 15° C | 86% | 1014.5 hPa | 0 mm | - | 88 W/m² | - |
| 1788102303 | 14.44° C | 87% | 1014.2 hPa | 0 mm | - | 49 W/m² | - |
| 1788100507 | 14.44° C | 87% | 1014.1 hPa | 0 mm | - | 28 W/m² | - |
| 1788098703 | 14.44° C | 87% | 1013.9 hPa | 0 mm | - | 9 W/m² | - |
| 1788096903 | 14.44° C | 87% | 1013.4 hPa | 0 mm | - | 0 W/m² | - |
| 1788095103 | 14.44° C | 87% | 1013.3 hPa | 0 mm | - | 0 W/m² | - |
| 1788093303 | 14.44° C | 87% | 1013.2 hPa | 0 mm | - | 0 W/m² | - |
| 1788091503 | 14.44° C | 87% | 1013 hPa | 0 mm | - | 0 W/m² | - |
| 1788089703 | 14.44° C | 87% | 1013 hPa | 0 mm | - | 0 W/m² | - |
| 1788087915 | 14.44° C | 87% | 1012.9 hPa | 0 mm | - | 0 W/m² | - |
| 1788086104 | 14.44° C | 87% | 1013 hPa | 0 mm | - | 0 W/m² | - |
* Rain latest hour (hover to see other rain measurements)
** Current wind speed in m/s (hover to see current wind gust speed)